sensor_id;sensor_type;location;lat;lon;timestamp;pressure;altitude;pressure_sealevel;temperature;humidity
62655;BME280;48717;55.556;37.816;2023-06-26T00:02:01;99331.31;;;17.08;55.59
62655;BME280;48717;55.556;37.816;2023-06-26T00:04:34;99325.88;;;17.12;55.15
62655;BME280;48717;55.556;37.816;2023-06-26T00:07:03;99330.00;;;17.20;54.12
62655;BME280;48717;55.556;37.816;2023-06-26T00:09:31;99320.16;;;17.22;54.59
62655;BME280;48717;55.556;37.816;2023-06-26T00:11:58;99317.63;;;17.19;53.78
62655;BME280;48717;55.556;37.816;2023-06-26T00:14:26;99322.81;;;17.22;53.80
62655;BME280;48717;55.556;37.816;2023-06-26T00:16:53;99325.41;;;17.24;53.47
62655;BME280;48717;55.556;37.816;2023-06-26T00:19:20;99326.31;;;17.25;53.41
62655;BME280;48717;55.556;37.816;2023-06-26T00:21:47;99309.03;;;17.11;53.05
62655;BME280;48717;55.556;37.816;2023-06-26T00:24:15;99309.19;;;17.06;53.44
62655;BME280;48717;55.556;37.816;2023-06-26T00:26:42;99307.41;;;17.07;53.44
62655;BME280;48717;55.556;37.816;2023-06-26T00:29:09;99308.41;;;17.03;53.94
62655;BME280;48717;55.556;37.816;2023-06-26T00:31:36;99309.22;;;17.05;54.36
62655;BME280;48717;55.556;37.816;2023-06-26T00:34:05;99288.03;;;17.02;54.89
62655;BME280;48717;55.556;37.816;2023-06-26T00:36:33;99316.97;;;17.13;55.03
62655;BME280;48717;55.556;37.816;2023-06-26T00:39:00;99313.56;;;17.07;55.83
62655;BME280;48717;55.556;37.816;2023-06-26T00:41:28;99299.72;;;16.98;55.93
62655;BME280;48717;55.556;37.816;2023-06-26T00:43:55;99293.88;;;16.86;56.38
62655;BME280;48717;55.556;37.816;2023-06-26T00:46:22;99305.25;;;16.91;56.80
62655;BME280;48717;55.556;37.816;2023-06-26T00:48:52;99300.34;;;16.79;57.18
62655;BME280;48717;55.556;37.816;2023-06-26T00:51:20;99314.31;;;16.86;56.91
62655;BME280;48717;55.556;37.816;2023-06-26T00:53:47;99316.25;;;16.80;57.13
62655;BME280;48717;55.556;37.816;2023-06-26T00:56:18;99313.66;;;16.79;56.22
62655;BME280;48717;55.556;37.816;2023-06-26T00:58:45;99300.63;;;16.71;56.51
62655;BME280;48717;55.556;37.816;2023-06-26T01:01:13;99312.16;;;16.72;57.12
62655;BME280;48717;55.556;37.816;2023-06-26T01:03:44;99287.03;;;16.53;57.27
62655;BME280;48717;55.556;37.816;2023-06-26T01:06:13;99311.53;;;16.63;57.52
62655;BME280;48717;55.556;37.816;2023-06-26T01:08:43;99282.94;;;16.43;58.03
62655;BME280;48717;55.556;37.816;2023-06-26T01:11:12;99309.81;;;16.35;61.09
62655;BME280;48717;55.556;37.816;2023-06-26T01:13:41;99312.59;;;16.03;63.24
62655;BME280;48717;55.556;37.816;2023-06-26T01:16:09;99286.25;;;15.65;63.86
62655;BME280;48717;55.556;37.816;2023-06-26T01:18:39;99309.97;;;15.72;62.69
62655;BME280;48717;55.556;37.816;2023-06-26T01:21:13;99307.28;;;15.73;62.49
62655;BME280;48717;55.556;37.816;2023-06-26T01:24:16;99301.97;;;15.73;62.91
62655;BME280;48717;55.556;37.816;2023-06-26T01:26:50;99296.59;;;15.75;62.97
62655;BME280;48717;55.556;37.816;2023-06-26T01:29:18;99275.06;;;15.54;65.03
62655;BME280;48717;55.556;37.816;2023-06-26T01:31:47;99265.44;;;15.50;63.72
62655;BME280;48717;55.556;37.816;2023-06-26T01:34:17;99303.00;;;15.68;63.83
62655;BME280;48717;55.556;37.816;2023-06-26T01:36:45;99304.84;;;15.65;63.54
62655;BME280;48717;55.556;37.816;2023-06-26T01:39:15;99295.38;;;15.57;65.26
62655;BME280;48717;55.556;37.816;2023-06-26T01:41:43;99294.59;;;15.53;65.77
62655;BME280;48717;55.556;37.816;2023-06-26T01:44:29;99312.09;;;15.60;67.36
62655;BME280;48717;55.556;37.816;2023-06-26T01:57:31;99307.50;;;15.35;67.86
62655;BME280;48717;55.556;37.816;2023-06-26T02:00:01;99316.13;;;15.44;67.42
62655;BME280;48717;55.556;37.816;2023-06-26T02:02:41;99292.56;;;15.31;66.67
62655;BME280;48717;55.556;37.816;2023-06-26T02:05:13;99305.56;;;15.40;66.73
62655;BME280;48717;55.556;37.816;2023-06-26T02:07:41;99309.81;;;15.48;65.99
62655;BME280;48717;55.556;37.816;2023-06-26T02:10:08;99322.91;;;15.54;65.73
62655;BME280;48717;55.556;37.816;2023-06-26T02:12:37;99317.59;;;15.54;64.81
62655;BME280;48717;55.556;37.816;2023-06-26T02:15:04;99316.47;;;15.63;63.20
62655;BME280;48717;55.556;37.816;2023-06-26T02:17:33;99317.22;;;15.66;64.11
62655;BME280;48717;55.556;37.816;2023-06-26T02:20:01;99304.84;;;15.65;63.79
62655;BME280;48717;55.556;37.816;2023-06-26T02:22:32;99312.31;;;15.83;62.84
62655;BME280;48717;55.556;37.816;2023-06-26T02:24:59;99306.22;;;15.79;62.04
62655;BME280;48717;55.556;37.816;2023-06-26T02:27:28;99303.53;;;15.81;61.48
62655;BME280;48717;55.556;37.816;2023-06-26T02:29:55;99325.22;;;15.97;62.09
62655;BME280;48717;55.556;37.816;2023-06-26T02:32:22;99294.59;;;15.83;61.96
62655;BME280;48717;55.556;37.816;2023-06-26T02:34:50;99321.53;;;16.01;62.92
62655;BME280;48717;55.556;37.816;2023-06-26T02:37:20;99321.44;;;16.04;61.97
62655;BME280;48717;55.556;37.816;2023-06-26T02:39:47;99303.94;;;15.97;62.64
62655;BME280;48717;55.556;37.816;2023-06-26T02:42:15;99307.41;;;15.99;61.98
62655;BME280;48717;55.556;37.816;2023-06-26T02:44:42;99274.25;;;15.82;61.76
62655;BME280;48717;55.556;37.816;2023-06-26T02:47:09;99301.97;;;16.03;62.09
62655;BME280;48717;55.556;37.816;2023-06-26T02:49:40;99313.97;;;16.15;62.03
62655;BME280;48717;55.556;37.816;2023-06-26T02:52:08;99311.13;;;16.22;62.67
62655;BME280;48717;55.556;37.816;2023-06-26T02:54:35;99289.28;;;16.12;63.56
62655;BME280;48717;55.556;37.816;2023-06-26T02:57:04;99302.59;;;16.12;64.71
62655;BME280;48717;55.556;37.816;2023-06-26T02:59:32;99310.41;;;16.16;64.39
62655;BME280;48717;55.556;37.816;2023-06-26T03:01:59;99316.38;;;16.23;64.43
62655;BME280;48717;55.556;37.816;2023-06-26T03:04:35;99303.25;;;16.18;65.19
62655;BME280;48717;55.556;37.816;2023-06-26T03:07:05;99291.72;;;16.18;64.33
62655;BME280;48717;55.556;37.816;2023-06-26T03:09:33;99313.28;;;16.37;64.21
62655;BME280;48717;55.556;37.816;2023-06-26T03:12:01;99293.94;;;16.32;64.06
62655;BME280;48717;55.556;37.816;2023-06-26T03:14:28;99304.91;;;16.50;63.67
62655;BME280;48717;55.556;37.816;2023-06-26T03:16:56;99302.84;;;16.58;63.34
62655;BME280;48717;55.556;37.816;2023-06-26T03:19:27;99305.09;;;16.70;62.94
62655;BME280;48717;55.556;37.816;2023-06-26T03:22:14;99298.66;;;16.76;62.34
62655;BME280;48717;55.556;37.816;2023-06-26T03:24:43;99314.31;;;16.86;61.99
62655;BME280;48717;55.556;37.816;2023-06-26T03:27:11;99278.25;;;16.77;62.17
62655;BME280;48717;55.556;37.816;2023-06-26T03:29:39;99293.41;;;17.00;61.61
62655;BME280;48717;55.556;37.816;2023-06-26T03:32:08;99294.97;;;17.06;61.66
62655;BME280;48717;55.556;37.816;2023-06-26T03:34:35;99277.28;;;17.05;61.33
62655;BME280;48717;55.556;37.816;2023-06-26T03:37:05;99304.44;;;17.15;60.87
62655;BME280;48717;55.556;37.816;2023-06-26T03:39:32;99299.66;;;17.25;60.77
62655;BME280;48717;55.556;37.816;2023-06-26T03:42:00;99279.50;;;17.17;60.41
62655;BME280;48717;55.556;37.816;2023-06-26T03:44:28;99302.78;;;17.36;60.36
62655;BME280;48717;55.556;37.816;2023-06-26T03:46:55;99300.94;;;17.38;60.42
62655;BME280;48717;55.556;37.816;2023-06-26T03:49:23;99302.56;;;17.42;60.47
62655;BME280;48717;55.556;37.816;2023-06-26T03:51:51;99280.66;;;17.34;60.30
62655;BME280;48717;55.556;37.816;2023-06-26T03:54:18;99269.19;;;17.32;60.32
62655;BME280;48717;55.556;37.816;2023-06-26T03:56:46;99285.06;;;17.35;60.37
62655;BME280;48717;55.556;37.816;2023-06-26T03:59:13;99295.47;;;17.41;60.99
62655;BME280;48717;55.556;37.816;2023-06-26T04:01:40;99288.66;;;17.34;61.29
62655;BME280;48717;55.556;37.816;2023-06-26T04:04:07;99294.56;;;17.42;61.47
62655;BME280;48717;55.556;37.816;2023-06-26T04:06:34;99287.38;;;17.44;61.68
62655;BME280;48717;55.556;37.816;2023-06-26T04:09:01;99283.59;;;17.50;60.98
62655;BME280;48717;55.556;37.816;2023-06-26T04:11:29;99291.94;;;17.65;60.48
62655;BME280;48717;55.556;37.816;2023-06-26T04:13:56;99301.13;;;17.80;60.41
62655;BME280;48717;55.556;37.816;2023-06-26T04:16:25;99298.66;;;17.97;60.02
62655;BME280;48717;55.556;37.816;2023-06-26T04:18:52;99298.22;;;18.10;59.60
62655;BME280;48717;55.556;37.816;2023-06-26T04:21:20;99300.22;;;18.25;59.44
62655;BME280;48717;55.556;37.816;2023-06-26T04:23:47;99276.09;;;18.29;59.14
62655;BME280;48717;55.556;37.816;2023-06-26T04:26:15;99293.16;;;18.68;57.90
62655;BME280;48717;55.556;37.816;2023-06-26T04:28:42;99275.88;;;18.76;57.60
62655;BME280;48717;55.556;37.816;2023-06-26T04:31:10;99304.66;;;19.11;56.67
62655;BME280;48717;55.556;37.816;2023-06-26T04:33:37;99289.53;;;19.31;56.22
62655;BME280;48717;55.556;37.816;2023-06-26T04:36:08;99298.66;;;19.46;55.88
62655;BME280;48717;55.556;37.816;2023-06-26T04:38:35;99296.84;;;19.66;55.15
62655;BME280;48717;55.556;37.816;2023-06-26T04:41:03;99297.53;;;19.89;54.84
62655;BME280;48717;55.556;37.816;2023-06-26T04:43:31;99300.16;;;20.09;54.32
62655;BME280;48717;55.556;37.816;2023-06-26T04:45:58;99293.03;;;20.28;54.07
62655;BME280;48717;55.556;37.816;2023-06-26T04:48:25;99291.38;;;20.43;53.39
62655;BME280;48717;55.556;37.816;2023-06-26T04:50:56;99262.72;;;20.45;52.53
62655;BME280;48717;55.556;37.816;2023-06-26T04:53:23;99283.44;;;20.77;51.37
62655;BME280;48717;55.556;37.816;2023-06-26T04:55:52;99281.41;;;20.82;49.84
62655;BME280;48717;55.556;37.816;2023-06-26T04:58:19;99283.75;;;21.06;49.04
62655;BME280;48717;55.556;37.816;2023-06-26T05:00:47;99291.50;;;21.28;48.56
62655;BME280;48717;55.556;37.816;2023-06-26T05:03:17;99288.78;;;21.46;47.64
62655;BME280;48717;55.556;37.816;2023-06-26T05:05:45;99287.59;;;21.68;46.67
62655;BME280;48717;55.556;37.816;2023-06-26T05:08:21;99274.34;;;21.64;46.57
62655;BME280;48717;55.556;37.816;2023-06-26T05:10:48;99287.72;;;21.82;46.02
62655;BME280;48717;55.556;37.816;2023-06-26T05:13:16;99294.63;;;22.02;45.32
62655;BME280;48717;55.556;37.816;2023-06-26T05:15:45;99268.53;;;22.21;44.91
62655;BME280;48717;55.556;37.816;2023-06-26T05:18:12;99281.53;;;22.59;44.01
62655;BME280;48717;55.556;37.816;2023-06-26T05:20:40;99283.16;;;22.92;43.76
62655;BME280;48717;55.556;37.816;2023-06-26T05:23:07;99290.47;;;23.19;42.73
62655;BME280;48717;55.556;37.816;2023-06-26T05:25:35;99267.81;;;23.38;42.12
62655;BME280;48717;55.556;37.816;2023-06-26T05:28:03;99288.91;;;23.73;41.63
62655;BME280;48717;55.556;37.816;2023-06-26T05:30:32;99269.66;;;23.80;40.73
62655;BME280;48717;55.556;37.816;2023-06-26T05:33:03;99290.75;;;24.01;40.20
62655;BME280;48717;55.556;37.816;2023-06-26T05:35:30;99270.09;;;24.01;40.76
62655;BME280;48717;55.556;37.816;2023-06-26T05:37:58;99288.84;;;24.03;39.87
62655;BME280;48717;55.556;37.816;2023-06-26T05:40:26;99283.47;;;24.03;39.25
62655;BME280;48717;55.556;37.816;2023-06-26T05:42:53;99289.38;;;24.22;38.91
62655;BME280;48717;55.556;37.816;2023-06-26T05:45:20;99277.16;;;24.44;38.27
62655;BME280;48717;55.556;37.816;2023-06-26T05:47:48;99285.63;;;24.79;38.08
62655;BME280;48717;55.556;37.816;2023-06-26T05:50:17;99280.25;;;25.05;38.11
62655;BME280;48717;55.556;37.816;2023-06-26T05:52:45;99269.59;;;25.29;37.64
62655;BME280;48717;55.556;37.816;2023-06-26T05:55:13;99270.09;;;25.60;37.18
62655;BME280;48717;55.556;37.816;2023-06-26T05:57:40;99272.38;;;25.91;36.61
62655;BME280;48717;55.556;37.816;2023-06-26T06:00:08;99247.75;;;25.96;34.79
62655;BME280;48717;55.556;37.816;2023-06-26T06:02:42;99264.28;;;26.40;35.88
62655;BME280;48717;55.556;37.816;2023-06-26T06:05:10;99248.53;;;26.09;35.42
62655;BME280;48717;55.556;37.816;2023-06-26T06:07:37;99265.72;;;26.32;34.10
62655;BME280;48717;55.556;37.816;2023-06-26T06:10:04;99261.09;;;26.46;34.47
62655;BME280;48717;55.556;37.816;2023-06-26T06:12:32;99269.81;;;26.74;33.74
62655;BME280;48717;55.556;37.816;2023-06-26T06:14:59;99233.66;;;26.75;33.63
62655;BME280;48717;55.556;37.816;2023-06-26T06:17:27;99266.44;;;27.06;32.74
62655;BME280;48717;55.556;37.816;2023-06-26T06:19:55;99266.56;;;27.05;32.12
62655;BME280;48717;55.556;37.816;2023-06-26T06:22:23;99273.44;;;27.32;29.89
62655;BME280;48717;55.556;37.816;2023-06-26T06:24:50;99253.16;;;27.49;30.26
62655;BME280;48717;55.556;37.816;2023-06-26T06:27:18;99246.63;;;27.63;30.54
62655;BME280;48717;55.556;37.816;2023-06-26T06:29:45;99263.91;;;27.95;29.86
62655;BME280;48717;55.556;37.816;2023-06-26T06:32:12;99259.16;;;28.20;28.86
62655;BME280;48717;55.556;37.816;2023-06-26T06:34:40;99259.88;;;28.33;28.78
62655;BME280;48717;55.556;37.816;2023-06-26T06:37:07;99261.13;;;28.29;28.17
62655;BME280;48717;55.556;37.816;2023-06-26T06:39:35;99266.44;;;28.52;28.34
62655;BME280;48717;55.556;37.816;2023-06-26T06:42:02;99255.31;;;28.55;27.81
62655;BME280;48717;55.556;37.816;2023-06-26T06:44:30;99256.13;;;28.67;27.79
62655;BME280;48717;55.556;37.816;2023-06-26T06:47:00;99253.06;;;29.03;27.17
62655;BME280;48717;55.556;37.816;2023-06-26T06:49:27;99248.50;;;29.35;26.62
62655;BME280;48717;55.556;37.816;2023-06-26T06:51:54;99249.00;;;29.18;25.94
62655;BME280;48717;55.556;37.816;2023-06-26T06:54:21;99243.41;;;29.10;26.53
62655;BME280;48717;55.556;37.816;2023-06-26T06:56:49;99249.38;;;29.35;26.27
62655;BME280;48717;55.556;37.816;2023-06-26T06:59:16;99248.22;;;29.79;25.77
62655;BME280;48717;55.556;37.816;2023-06-26T07:01:43;99244.53;;;30.00;25.93
62655;BME280;48717;55.556;37.816;2023-06-26T07:04:10;99240.44;;;30.35;25.61
62655;BME280;48717;55.556;37.816;2023-06-26T07:06:38;99241.81;;;30.59;25.32
62655;BME280;48717;55.556;37.816;2023-06-26T07:09:05;99244.13;;;30.54;25.24
62655;BME280;48717;55.556;37.816;2023-06-26T07:11:33;99235.97;;;30.73;25.20
62655;BME280;48717;55.556;37.816;2023-06-26T07:14:00;99241.19;;;30.95;24.13
62655;BME280;48717;55.556;37.816;2023-06-26T07:16:27;99250.28;;;30.76;24.03
62655;BME280;48717;55.556;37.816;2023-06-26T07:18:55;99244.97;;;30.84;24.25
62655;BME280;48717;55.556;37.816;2023-06-26T07:21:22;99231.59;;;31.00;24.15
62655;BME280;48717;55.556;37.816;2023-06-26T07:23:52;99235.53;;;31.16;23.98
62655;BME280;48717;55.556;37.816;2023-06-26T07:26:19;99226.59;;;30.96;23.25
62655;BME280;48717;55.556;37.816;2023-06-26T07:29:05;99227.47;;;31.24;23.09
62655;BME280;48717;55.556;37.816;2023-06-26T07:31:33;99232.66;;;31.56;22.49
62655;BME280;48717;55.556;37.816;2023-06-26T07:34:01;99235.78;;;31.23;22.14
62655;BME280;48717;55.556;37.816;2023-06-26T07:36:28;99230.34;;;31.23;22.32
62655;BME280;48717;55.556;37.816;2023-06-26T07:38:55;99233.53;;;31.18;22.27
62655;BME280;48717;55.556;37.816;2023-06-26T07:41:22;99230.53;;;31.49;21.05
62655;BME280;48717;55.556;37.816;2023-06-26T07:43:49;99217.13;;;31.66;22.52
62655;BME280;48717;55.556;37.816;2023-06-26T07:46:16;99227.88;;;31.86;21.72
62655;BME280;48717;55.556;37.816;2023-06-26T07:48:43;99212.66;;;31.65;21.07
62655;BME280;48717;55.556;37.816;2023-06-26T07:51:11;99221.06;;;31.72;20.92
62655;BME280;48717;55.556;37.816;2023-06-26T07:53:38;99218.81;;;31.67;19.91
62655;BME280;48717;55.556;37.816;2023-06-26T07:56:06;99218.00;;;31.85;19.77
62655;BME280;48717;55.556;37.816;2023-06-26T07:58:33;99201.84;;;32.01;20.12
62655;BME280;48717;55.556;37.816;2023-06-26T08:01:00;99203.22;;;32.06;20.60
62655;BME280;48717;55.556;37.816;2023-06-26T08:03:27;99214.97;;;32.24;20.76
62655;BME280;48717;55.556;37.816;2023-06-26T08:06:01;99201.19;;;32.08;20.78
62655;BME280;48717;55.556;37.816;2023-06-26T08:08:30;99208.09;;;32.38;21.01
62655;BME280;48717;55.556;37.816;2023-06-26T08:10:57;99209.19;;;32.27;21.28
62655;BME280;48717;55.556;37.816;2023-06-26T08:13:25;99207.03;;;32.13;21.17
62655;BME280;48717;55.556;37.816;2023-06-26T08:15:52;99188.44;;;31.90;21.15
62655;BME280;48717;55.556;37.816;2023-06-26T08:18:19;99213.00;;;31.62;21.25
62655;BME280;48717;55.556;37.816;2023-06-26T08:20:46;99221.34;;;30.74;22.42
62655;BME280;48717;55.556;37.816;2023-06-26T08:23:13;99221.94;;;30.48;23.49
62655;BME280;48717;55.556;37.816;2023-06-26T08:25:40;99219.97;;;30.31;23.16
62655;BME280;48717;55.556;37.816;2023-06-26T08:28:08;99218.22;;;30.00;23.49
62655;BME280;48717;55.556;37.816;2023-06-26T08:30:35;99214.47;;;29.72;23.87
62655;BME280;48717;55.556;37.816;2023-06-26T08:33:03;99210.34;;;29.36;24.99
62655;BME280;48717;55.556;37.816;2023-06-26T08:35:30;99222.66;;;29.40;25.21
62655;BME280;48717;55.556;37.816;2023-06-26T08:37:57;99210.34;;;29.36;25.80
62655;BME280;48717;55.556;37.816;2023-06-26T08:40:25;99206.78;;;29.36;25.39
62655;BME280;48717;55.556;37.816;2023-06-26T08:42:52;99226.84;;;29.13;24.91
62655;BME280;48717;55.556;37.816;2023-06-26T08:45:20;99190.78;;;28.91;25.13
62655;BME280;48717;55.556;37.816;2023-06-26T08:47:50;99213.50;;;28.79;25.29
62655;BME280;48717;55.556;37.816;2023-06-26T08:50:20;99213.81;;;28.33;25.79
62655;BME280;48717;55.556;37.816;2023-06-26T08:52:54;99211.81;;;28.35;26.90
62655;BME280;48717;55.556;37.816;2023-06-26T08:55:23;99213.22;;;28.51;26.40
62655;BME280;48717;55.556;37.816;2023-06-26T08:57:53;99220.53;;;28.60;26.94
62655;BME280;48717;55.556;37.816;2023-06-26T09:00:21;99212.13;;;28.63;25.84
62655;BME280;48717;55.556;37.816;2023-06-26T09:02:48;99220.53;;;28.60;26.04
62655;BME280;48717;55.556;37.816;2023-06-26T09:05:15;99189.84;;;28.60;25.81
62655;BME280;48717;55.556;37.816;2023-06-26T09:07:42;99201.75;;;28.90;25.38
62655;BME280;48717;55.556;37.816;2023-06-26T09:10:10;99199.03;;;29.21;25.67
62655;BME280;48717;55.556;37.816;2023-06-26T09:12:38;99184.56;;;29.21;25.02
62655;BME280;48717;55.556;37.816;2023-06-26T09:15:08;99204.09;;;29.04;23.94
62655;BME280;48717;55.556;37.816;2023-06-26T09:17:39;99201.84;;;28.88;25.04
62655;BME280;48717;55.556;37.816;2023-06-26T09:20:09;99177.66;;;28.97;25.05
62655;BME280;48717;55.556;37.816;2023-06-26T09:22:38;99203.03;;;29.27;24.74
62655;BME280;48717;55.556;37.816;2023-06-26T09:25:06;99188.69;;;29.56;24.03
62655;BME280;48717;55.556;37.816;2023-06-26T09:27:34;99211.06;;;29.79;23.29
62655;BME280;48717;55.556;37.816;2023-06-26T09:30:03;99194.75;;;29.89;23.24
62655;BME280;48717;55.556;37.816;2023-06-26T09:32:34;99197.94;;;30.24;23.22
62655;BME280;48717;55.556;37.816;2023-06-26T09:35:03;99204.78;;;30.28;23.02
62655;BME280;48717;55.556;37.816;2023-06-26T09:37:32;99186.72;;;30.47;22.67
62655;BME280;48717;55.556;37.816;2023-06-26T09:39:59;99183.59;;;30.42;22.33
62655;BME280;48717;55.556;37.816;2023-06-26T09:42:27;99196.63;;;30.38;22.90
62655;BME280;48717;55.556;37.816;2023-06-26T09:44:56;99191.88;;;30.01;23.95
62655;BME280;48717;55.556;37.816;2023-06-26T09:47:23;99182.44;;;30.05;24.09
62655;BME280;48717;55.556;37.816;2023-06-26T09:49:51;99183.91;;;29.89;23.35
62655;BME280;48717;55.556;37.816;2023-06-26T09:52:26;99179.03;;;30.13;23.03
62655;BME280;48717;55.556;37.816;2023-06-26T09:55:07;99184.13;;;30.75;22.53
62655;BME280;48717;55.556;37.816;2023-06-26T09:57:35;99185.09;;;31.12;22.50
62655;BME280;48717;55.556;37.816;2023-06-26T10:00:03;99177.78;;;31.22;21.13
62655;BME280;48717;55.556;37.816;2023-06-26T10:02:38;99169.41;;;31.62;20.60
62655;BME280;48717;55.556;37.816;2023-06-26T10:05:06;99171.28;;;31.80;20.31
62655;BME280;48717;55.556;37.816;2023-06-26T10:07:34;99174.91;;;32.25;20.03
62655;BME280;48717;55.556;37.816;2023-06-26T10:10:04;99163.00;;;32.44;20.31
62655;BME280;48717;55.556;37.816;2023-06-26T10:12:32;99163.56;;;32.82;19.15
62655;BME280;48717;55.556;37.816;2023-06-26T10:15:02;99168.72;;;32.94;19.12
62655;BME280;48717;55.556;37.816;2023-06-26T10:17:36;99148.84;;;33.02;18.35
62655;BME280;48717;55.556;37.816;2023-06-26T10:20:06;99156.28;;;33.26;18.83
62655;BME280;48717;55.556;37.816;2023-06-26T10:22:46;99149.16;;;32.72;20.43
62655;BME280;48717;55.556;37.816;2023-06-26T10:25:19;99157.66;;;31.80;21.56
62655;BME280;48717;55.556;37.816;2023-06-26T10:27:56;99143.19;;;31.05;22.72
62655;BME280;48717;55.556;37.816;2023-06-26T10:30:32;99160.41;;;31.23;22.87
62655;BME280;48717;55.556;37.816;2023-06-26T10:33:00;99149.00;;;31.84;21.66
62655;BME280;48717;55.556;37.816;2023-06-26T10:35:30;99153.38;;;31.95;21.42
62655;BME280;48717;55.556;37.816;2023-06-26T10:38:02;99125.66;;;31.17;21.50
62655;BME280;48717;55.556;37.816;2023-06-26T10:40:44;99147.72;;;30.86;22.42
62655;BME280;48717;55.556;37.816;2023-06-26T10:43:13;99154.69;;;30.41;23.06
62655;BME280;48717;55.556;37.816;2023-06-26T10:45:48;99145.75;;;30.68;22.79
62655;BME280;48717;55.556;37.816;2023-06-26T10:48:22;99137.78;;;30.37;23.04
62655;BME280;48717;55.556;37.816;2023-06-26T10:50:55;99143.25;;;30.07;23.63
62655;BME280;48717;55.556;37.816;2023-06-26T10:53:25;99150.44;;;29.69;23.80
62655;BME280;48717;55.556;37.816;2023-06-26T10:55:55;99138.81;;;30.36;23.71
62655;BME280;48717;55.556;37.816;2023-06-26T11:06:29;99126.34;;;33.84;19.12
62655;BME280;48717;55.556;37.816;2023-06-26T11:09:08;99123.97;;;34.23;18.10
62655;BME280;48717;55.556;37.816;2023-06-26T11:14:23;99103.22;;;35.02;17.78
62655;BME280;48717;55.556;37.816;2023-06-26T11:16:51;99115.06;;;35.02;17.64
62655;BME280;48717;55.556;37.816;2023-06-26T11:19:19;99106.63;;;35.12;17.58
62655;BME280;48717;55.556;37.816;2023-06-26T11:21:47;99088.63;;;34.78;17.64
62655;BME280;48717;55.556;37.816;2023-06-26T11:24:14;99104.00;;;34.87;17.25
62655;BME280;48717;55.556;37.816;2023-06-26T11:26:42;99116.38;;;34.67;17.25
62655;BME280;48717;55.556;37.816;2023-06-26T11:29:10;99111.97;;;34.41;17.42
62655;BME280;48717;55.556;37.816;2023-06-26T11:31:40;99112.34;;;34.29;17.87
62655;BME280;48717;55.556;37.816;2023-06-26T11:34:11;99105.50;;;34.25;17.83
62655;BME280;48717;55.556;37.816;2023-06-26T11:36:41;99087.97;;;33.18;18.83
62655;BME280;48717;55.556;37.816;2023-06-26T11:39:10;99104.59;;;32.98;18.44
62655;BME280;48717;55.556;37.816;2023-06-26T11:41:39;99105.84;;;32.16;18.86
62655;BME280;48717;55.556;37.816;2023-06-26T11:44:08;99106.78;;;31.34;19.59
62655;BME280;48717;55.556;37.816;2023-06-26T11:46:37;99099.09;;;31.47;19.50
62655;BME280;48717;55.556;37.816;2023-06-26T11:49:05;99099.44;;;32.25;18.71
62655;BME280;48717;55.556;37.816;2023-06-26T11:51:33;99093.53;;;33.68;17.92
62655;BME280;48717;55.556;37.816;2023-06-26T11:54:03;99058.56;;;34.53;15.96
62655;BME280;48717;55.556;37.816;2023-06-26T11:56:31;99080.06;;;35.21;15.72
62655;BME280;48717;55.556;37.816;2023-06-26T11:59:01;99076.53;;;36.06;14.97
62655;BME280;48717;55.556;37.816;2023-06-26T12:01:37;99072.69;;;36.76;14.48
62655;BME280;48717;55.556;37.816;2023-06-26T12:04:08;99091.25;;;35.90;13.90
62655;BME280;48717;55.556;37.816;2023-06-26T12:06:40;99058.22;;;34.56;14.74
62655;BME280;48717;55.556;37.816;2023-06-26T12:09:10;99065.81;;;34.37;15.08
62655;BME280;48717;55.556;37.816;2023-06-26T12:11:41;99074.09;;;35.09;14.51
62655;BME280;48717;55.556;37.816;2023-06-26T12:14:10;99081.00;;;35.84;14.07
62655;BME280;48717;55.556;37.816;2023-06-26T12:16:37;99067.97;;;36.39;13.67
62655;BME280;48717;55.556;37.816;2023-06-26T12:19:07;99073.16;;;36.64;13.53
62655;BME280;48717;55.556;37.816;2023-06-26T12:24:06;99064.28;;;37.51;13.29
62655;BME280;48717;55.556;37.816;2023-06-26T12:26:34;99059.59;;;37.95;12.75
62655;BME280;48717;55.556;37.816;2023-06-26T12:29:12;99054.75;;;37.10;12.57
62655;BME280;48717;55.556;37.816;2023-06-26T12:31:41;99062.72;;;35.76;13.98
62655;BME280;48717;55.556;37.816;2023-06-26T12:34:14;99052.75;;;35.83;13.94
62655;BME280;48717;55.556;37.816;2023-06-26T12:36:45;99054.03;;;35.87;14.54
62655;BME280;48717;55.556;37.816;2023-06-26T12:39:19;99058.88;;;35.62;15.03
62655;BME280;48717;55.556;37.816;2023-06-26T12:41:56;99047.44;;;35.58;15.22
62655;BME280;48717;55.556;37.816;2023-06-26T12:44:26;99052.34;;;36.40;14.80
62655;BME280;48717;55.556;37.816;2023-06-26T12:46:56;99046.69;;;36.56;14.65
62655;BME280;48717;55.556;37.816;2023-06-26T12:49:37;99050.03;;;35.28;15.07
62655;BME280;48717;55.556;37.816;2023-06-26T12:52:07;99051.00;;;34.15;15.75
62655;BME280;48717;55.556;37.816;2023-06-26T12:54:39;99062.28;;;33.95;16.10
62655;BME280;48717;55.556;37.816;2023-06-26T12:57:07;99054.13;;;34.60;15.68
62655;BME280;48717;55.556;37.816;2023-06-26T12:59:36;99044.09;;;35.48;15.39
62655;BME280;48717;55.556;37.816;2023-06-26T13:02:04;99047.81;;;36.32;14.53
62655;BME280;48717;55.556;37.816;2023-06-26T13:04:32;99052.16;;;35.88;14.56
62655;BME280;48717;55.556;37.816;2023-06-26T13:06:59;99030.56;;;34.43;15.65
62655;BME280;48717;55.556;37.816;2023-06-26T13:09:31;99051.06;;;34.55;16.12
62655;BME280;48717;55.556;37.816;2023-06-26T13:12:01;99047.41;;;34.80;16.37
62655;BME280;48717;55.556;37.816;2023-06-26T13:14:31;99037.69;;;35.32;15.53
62655;BME280;48717;55.556;37.816;2023-06-26T13:16:58;99037.03;;;35.92;15.10
62655;BME280;48717;55.556;37.816;2023-06-26T13:19:25;99018.72;;;34.99;15.65
62655;BME280;48717;55.556;37.816;2023-06-26T13:21:52;99022.31;;;33.94;15.92
62655;BME280;48717;55.556;37.816;2023-06-26T13:24:19;99035.25;;;33.26;16.33